sensor_id;sensor_type;location;lat;lon;timestamp;P1;durP1;ratioP1;P2;durP2;ratioP2
13588;SDS011;6865;52.552;13.434;2022-12-24T00:01:33;13.13;;;7.10;;
13588;SDS011;6865;52.552;13.434;2022-12-24T00:04:04;9.43;;;6.43;;
13588;SDS011;6865;52.552;13.434;2022-12-24T00:06:31;11.67;;;7.43;;
13588;SDS011;6865;52.552;13.434;2022-12-24T00:08:58;9.77;;;6.50;;
13588;SDS011;6865;52.552;13.434;2022-12-24T00:11:27;9.67;;;6.63;;
13588;SDS011;6865;52.552;13.434;2022-12-24T00:13:54;9.77;;;6.77;;
13588;SDS011;6865;52.552;13.434;2022-12-24T00:16:20;10.77;;;6.57;;
13588;SDS011;6865;52.552;13.434;2022-12-24T00:18:47;9.00;;;6.70;;
13588;SDS011;6865;52.552;13.434;2022-12-24T00:21:14;9.23;;;6.37;;
13588;SDS011;6865;52.552;13.434;2022-12-24T00:23:41;7.40;;;5.80;;
13588;SDS011;6865;52.552;13.434;2022-12-24T00:26:08;9.93;;;6.40;;
13588;SDS011;6865;52.552;13.434;2022-12-24T00:28:35;7.40;;;6.13;;
13588;SDS011;6865;52.552;13.434;2022-12-24T00:31:11;8.63;;;5.90;;
13588;SDS011;6865;52.552;13.434;2022-12-24T00:33:40;8.30;;;5.50;;
13588;SDS011;6865;52.552;13.434;2022-12-24T00:36:07;8.40;;;5.73;;
13588;SDS011;6865;52.552;13.434;2022-12-24T00:38:35;10.10;;;6.20;;
13588;SDS011;6865;52.552;13.434;2022-12-24T00:41:02;9.30;;;5.80;;
13588;SDS011;6865;52.552;13.434;2022-12-24T00:43:30;8.87;;;5.77;;
13588;SDS011;6865;52.552;13.434;2022-12-24T00:45:58;9.80;;;5.90;;
13588;SDS011;6865;52.552;13.434;2022-12-24T00:48:24;10.50;;;6.63;;
13588;SDS011;6865;52.552;13.434;2022-12-24T00:50:51;9.77;;;5.97;;
13588;SDS011;6865;52.552;13.434;2022-12-24T00:53:18;9.87;;;5.70;;
13588;SDS011;6865;52.552;13.434;2022-12-24T00:55:44;6.97;;;5.50;;
13588;SDS011;6865;52.552;13.434;2022-12-24T00:58:11;10.50;;;6.30;;
13588;SDS011;6865;52.552;13.434;2022-12-24T01:00:38;8.37;;;6.00;;
13588;SDS011;6865;52.552;13.434;2022-12-24T01:03:04;9.30;;;5.97;;
13588;SDS011;6865;52.552;13.434;2022-12-24T01:05:31;9.43;;;6.53;;
13588;SDS011;6865;52.552;13.434;2022-12-24T01:07:57;10.00;;;6.47;;
13588;SDS011;6865;52.552;13.434;2022-12-24T01:10:24;8.67;;;6.27;;
13588;SDS011;6865;52.552;13.434;2022-12-24T01:12:51;9.77;;;6.40;;
13588;SDS011;6865;52.552;13.434;2022-12-24T01:15:17;9.57;;;7.27;;
13588;SDS011;6865;52.552;13.434;2022-12-24T01:17:44;9.10;;;6.40;;
13588;SDS011;6865;52.552;13.434;2022-12-24T01:20:13;8.87;;;6.50;;
13588;SDS011;6865;52.552;13.434;2022-12-24T01:22:41;11.70;;;7.03;;
13588;SDS011;6865;52.552;13.434;2022-12-24T01:25:08;10.70;;;7.27;;
13588;SDS011;6865;52.552;13.434;2022-12-24T01:27:35;11.17;;;7.07;;
13588;SDS011;6865;52.552;13.434;2022-12-24T01:30:03;10.17;;;7.03;;
13588;SDS011;6865;52.552;13.434;2022-12-24T01:32:31;11.80;;;7.40;;
13588;SDS011;6865;52.552;13.434;2022-12-24T01:34:58;10.70;;;7.00;;
13588;SDS011;6865;52.552;13.434;2022-12-24T01:37:25;9.93;;;7.90;;
13588;SDS011;6865;52.552;13.434;2022-12-24T01:39:51;12.17;;;7.60;;
13588;SDS011;6865;52.552;13.434;2022-12-24T01:42:38;9.93;;;7.47;;
13588;SDS011;6865;52.552;13.434;2022-12-24T01:45:40;10.97;;;7.97;;
13588;SDS011;6865;52.552;13.434;2022-12-24T01:48:33;10.90;;;7.40;;
13588;SDS011;6865;52.552;13.434;2022-12-24T01:51:01;13.03;;;8.00;;
13588;SDS011;6865;52.552;13.434;2022-12-24T01:53:34;12.30;;;8.17;;
13588;SDS011;6865;52.552;13.434;2022-12-24T01:56:03;11.33;;;7.47;;
13588;SDS011;6865;52.552;13.434;2022-12-24T01:58:31;11.10;;;7.90;;
13588;SDS011;6865;52.552;13.434;2022-12-24T02:00:59;9.80;;;7.07;;
13588;SDS011;6865;52.552;13.434;2022-12-24T02:03:26;12.40;;;7.67;;
13588;SDS011;6865;52.552;13.434;2022-12-24T02:05:53;10.97;;;7.43;;
13588;SDS011;6865;52.552;13.434;2022-12-24T02:08:23;10.00;;;8.03;;
13588;SDS011;6865;52.552;13.434;2022-12-24T02:10:49;12.13;;;7.47;;
13588;SDS011;6865;52.552;13.434;2022-12-24T02:13:18;11.57;;;7.87;;
13588;SDS011;6865;52.552;13.434;2022-12-24T02:16:03;11.70;;;8.17;;
13588;SDS011;6865;52.552;13.434;2022-12-24T02:18:51;11.70;;;8.27;;
13588;SDS011;6865;52.552;13.434;2022-12-24T02:24:11;10.67;;;7.67;;
13588;SDS011;6865;52.552;13.434;2022-12-24T02:27:07;11.67;;;8.10;;
13588;SDS011;6865;52.552;13.434;2022-12-24T02:29:51;14.03;;;8.10;;
13588;SDS011;6865;52.552;13.434;2022-12-24T02:35:07;13.27;;;8.63;;
13588;SDS011;6865;52.552;13.434;2022-12-24T02:37:48;12.10;;;8.37;;
13588;SDS011;6865;52.552;13.434;2022-12-24T02:40:21;12.57;;;8.53;;
13588;SDS011;6865;52.552;13.434;2022-12-24T02:42:55;13.70;;;8.70;;
13588;SDS011;6865;52.552;13.434;2022-12-24T02:45:30;11.07;;;7.77;;
13588;SDS011;6865;52.552;13.434;2022-12-24T02:47:59;12.47;;;8.33;;
13588;SDS011;6865;52.552;13.434;2022-12-24T02:50:26;14.80;;;8.40;;
13588;SDS011;6865;52.552;13.434;2022-12-24T02:52:53;10.67;;;7.80;;
13588;SDS011;6865;52.552;13.434;2022-12-24T02:55:38;12.87;;;8.93;;
13588;SDS011;6865;52.552;13.434;2022-12-24T02:58:36;11.13;;;7.87;;
13588;SDS011;6865;52.552;13.434;2022-12-24T03:01:33;12.37;;;8.40;;
13588;SDS011;6865;52.552;13.434;2022-12-24T03:07:21;10.67;;;7.60;;
13588;SDS011;6865;52.552;13.434;2022-12-24T03:10:08;11.60;;;8.23;;
13588;SDS011;6865;52.552;13.434;2022-12-24T03:12:44;11.70;;;8.47;;
13588;SDS011;6865;52.552;13.434;2022-12-24T03:15:15;12.97;;;8.67;;
13588;SDS011;6865;52.552;13.434;2022-12-24T03:17:45;11.87;;;8.07;;
13588;SDS011;6865;52.552;13.434;2022-12-24T03:20:16;12.33;;;8.90;;
13588;SDS011;6865;52.552;13.434;2022-12-24T03:22:46;15.10;;;8.87;;
13588;SDS011;6865;52.552;13.434;2022-12-24T03:25:12;12.63;;;8.13;;
13588;SDS011;6865;52.552;13.434;2022-12-24T03:27:39;14.97;;;8.10;;
13588;SDS011;6865;52.552;13.434;2022-12-24T03:30:10;13.87;;;9.03;;
13588;SDS011;6865;52.552;13.434;2022-12-24T03:32:39;13.80;;;8.60;;
13588;SDS011;6865;52.552;13.434;2022-12-24T03:35:06;13.63;;;8.00;;
13588;SDS011;6865;52.552;13.434;2022-12-24T03:37:33;12.20;;;8.20;;
13588;SDS011;6865;52.552;13.434;2022-12-24T03:40:00;13.67;;;8.53;;
13588;SDS011;6865;52.552;13.434;2022-12-24T03:42:27;13.40;;;8.67;;
13588;SDS011;6865;52.552;13.434;2022-12-24T03:44:53;12.47;;;8.07;;
13588;SDS011;6865;52.552;13.434;2022-12-24T03:47:20;10.77;;;7.90;;
13588;SDS011;6865;52.552;13.434;2022-12-24T03:49:46;11.03;;;7.87;;
13588;SDS011;6865;52.552;13.434;2022-12-24T03:52:13;11.17;;;7.90;;
13588;SDS011;6865;52.552;13.434;2022-12-24T03:54:40;10.27;;;7.30;;
13588;SDS011;6865;52.552;13.434;2022-12-24T03:57:07;11.33;;;7.63;;
13588;SDS011;6865;52.552;13.434;2022-12-24T03:59:34;9.97;;;7.40;;
13588;SDS011;6865;52.552;13.434;2022-12-24T04:02:00;10.93;;;7.63;;
13588;SDS011;6865;52.552;13.434;2022-12-24T04:04:27;12.10;;;7.87;;
13588;SDS011;6865;52.552;13.434;2022-12-24T04:06:54;12.40;;;8.27;;
13588;SDS011;6865;52.552;13.434;2022-12-24T04:09:20;10.13;;;7.30;;
13588;SDS011;6865;52.552;13.434;2022-12-24T04:11:47;12.40;;;8.00;;
13588;SDS011;6865;52.552;13.434;2022-12-24T04:14:13;11.80;;;8.20;;
13588;SDS011;6865;52.552;13.434;2022-12-24T04:16:40;10.63;;;7.40;;
13588;SDS011;6865;52.552;13.434;2022-12-24T04:19:07;10.47;;;7.60;;
13588;SDS011;6865;52.552;13.434;2022-12-24T04:21:33;11.60;;;7.73;;
13588;SDS011;6865;52.552;13.434;2022-12-24T04:24:00;11.83;;;7.53;;
13588;SDS011;6865;52.552;13.434;2022-12-24T04:26:26;10.57;;;7.43;;
13588;SDS011;6865;52.552;13.434;2022-12-24T04:28:53;10.27;;;7.33;;
13588;SDS011;6865;52.552;13.434;2022-12-24T04:31:20;12.00;;;7.53;;
13588;SDS011;6865;52.552;13.434;2022-12-24T04:33:46;9.97;;;7.37;;
13588;SDS011;6865;52.552;13.434;2022-12-24T04:36:16;11.77;;;7.67;;
13588;SDS011;6865;52.552;13.434;2022-12-24T04:38:44;9.37;;;7.37;;
13588;SDS011;6865;52.552;13.434;2022-12-24T04:41:15;9.97;;;7.23;;
13588;SDS011;6865;52.552;13.434;2022-12-24T04:43:49;10.00;;;7.17;;
13588;SDS011;6865;52.552;13.434;2022-12-24T04:46:18;10.53;;;7.23;;
13588;SDS011;6865;52.552;13.434;2022-12-24T04:48:47;12.60;;;7.80;;
13588;SDS011;6865;52.552;13.434;2022-12-24T04:51:15;11.53;;;7.07;;
13588;SDS011;6865;52.552;13.434;2022-12-24T04:53:42;10.77;;;7.07;;
13588;SDS011;6865;52.552;13.434;2022-12-24T04:56:10;10.07;;;7.30;;
13588;SDS011;6865;52.552;13.434;2022-12-24T04:58:41;12.40;;;7.50;;
13588;SDS011;6865;52.552;13.434;2022-12-24T05:01:13;9.67;;;7.23;;
13588;SDS011;6865;52.552;13.434;2022-12-24T05:03:42;10.07;;;7.70;;
13588;SDS011;6865;52.552;13.434;2022-12-24T05:06:11;10.67;;;7.03;;
13588;SDS011;6865;52.552;13.434;2022-12-24T05:08:38;11.43;;;7.37;;
13588;SDS011;6865;52.552;13.434;2022-12-24T05:11:05;8.87;;;6.83;;
13588;SDS011;6865;52.552;13.434;2022-12-24T05:13:32;10.17;;;6.67;;
13588;SDS011;6865;52.552;13.434;2022-12-24T05:16:10;9.07;;;6.53;;
13588;SDS011;6865;52.552;13.434;2022-12-24T05:18:37;9.30;;;6.50;;
13588;SDS011;6865;52.552;13.434;2022-12-24T05:21:11;9.50;;;6.63;;
13588;SDS011;6865;52.552;13.434;2022-12-24T05:23:39;8.27;;;6.60;;
13588;SDS011;6865;52.552;13.434;2022-12-24T05:26:29;10.80;;;7.30;;
13588;SDS011;6865;52.552;13.434;2022-12-24T05:29:03;9.67;;;6.73;;
13588;SDS011;6865;52.552;13.434;2022-12-24T05:31:30;9.70;;;6.90;;
13588;SDS011;6865;52.552;13.434;2022-12-24T05:33:59;10.20;;;7.10;;
13588;SDS011;6865;52.552;13.434;2022-12-24T05:36:26;11.60;;;7.53;;
13588;SDS011;6865;52.552;13.434;2022-12-24T05:38:52;8.93;;;7.23;;
13588;SDS011;6865;52.552;13.434;2022-12-24T05:41:19;11.13;;;7.77;;
13588;SDS011;6865;52.552;13.434;2022-12-24T05:43:46;9.73;;;7.13;;
13588;SDS011;6865;52.552;13.434;2022-12-24T05:46:14;11.67;;;6.90;;
13588;SDS011;6865;52.552;13.434;2022-12-24T05:48:42;9.87;;;7.07;;
13588;SDS011;6865;52.552;13.434;2022-12-24T05:51:10;10.90;;;8.10;;
13588;SDS011;6865;52.552;13.434;2022-12-24T05:53:38;11.87;;;8.03;;
13588;SDS011;6865;52.552;13.434;2022-12-24T05:56:06;11.60;;;7.63;;
13588;SDS011;6865;52.552;13.434;2022-12-24T05:58:37;11.27;;;7.70;;
13588;SDS011;6865;52.552;13.434;2022-12-24T06:01:05;11.90;;;7.73;;
13588;SDS011;6865;52.552;13.434;2022-12-24T06:03:33;11.37;;;7.77;;
13588;SDS011;6865;52.552;13.434;2022-12-24T06:06:04;10.83;;;7.90;;
13588;SDS011;6865;52.552;13.434;2022-12-24T06:08:33;11.07;;;7.90;;
13588;SDS011;6865;52.552;13.434;2022-12-24T06:11:01;15.07;;;9.00;;
13588;SDS011;6865;52.552;13.434;2022-12-24T06:13:30;13.03;;;8.90;;
13588;SDS011;6865;52.552;13.434;2022-12-24T06:15:57;12.20;;;8.87;;
13588;SDS011;6865;52.552;13.434;2022-12-24T06:18:27;12.57;;;9.57;;
13588;SDS011;6865;52.552;13.434;2022-12-24T06:20:56;12.93;;;8.03;;
13588;SDS011;6865;52.552;13.434;2022-12-24T06:23:23;12.90;;;9.00;;
13588;SDS011;6865;52.552;13.434;2022-12-24T06:25:51;10.97;;;8.07;;
13588;SDS011;6865;52.552;13.434;2022-12-24T06:28:20;10.93;;;8.40;;
13588;SDS011;6865;52.552;13.434;2022-12-24T06:30:48;11.80;;;8.27;;
13588;SDS011;6865;52.552;13.434;2022-12-24T06:33:15;10.47;;;7.57;;
13588;SDS011;6865;52.552;13.434;2022-12-24T06:35:43;12.20;;;8.10;;
13588;SDS011;6865;52.552;13.434;2022-12-24T06:38:10;11.87;;;8.20;;
13588;SDS011;6865;52.552;13.434;2022-12-24T06:40:38;11.20;;;8.33;;
13588;SDS011;6865;52.552;13.434;2022-12-24T06:43:05;13.20;;;8.17;;
13588;SDS011;6865;52.552;13.434;2022-12-24T06:45:32;11.33;;;7.97;;
13588;SDS011;6865;52.552;13.434;2022-12-24T06:47:59;12.77;;;8.50;;
13588;SDS011;6865;52.552;13.434;2022-12-24T06:50:26;10.83;;;7.93;;
13588;SDS011;6865;52.552;13.434;2022-12-24T06:52:53;12.83;;;8.43;;
13588;SDS011;6865;52.552;13.434;2022-12-24T06:55:19;12.03;;;7.87;;
13588;SDS011;6865;52.552;13.434;2022-12-24T06:57:46;13.47;;;8.93;;
13588;SDS011;6865;52.552;13.434;2022-12-24T07:00:13;11.80;;;8.33;;
13588;SDS011;6865;52.552;13.434;2022-12-24T07:02:40;11.33;;;8.30;;
13588;SDS011;6865;52.552;13.434;2022-12-24T07:05:08;13.60;;;8.07;;
13588;SDS011;6865;52.552;13.434;2022-12-24T07:07:37;11.90;;;8.20;;
13588;SDS011;6865;52.552;13.434;2022-12-24T07:10:04;10.53;;;7.97;;
13588;SDS011;6865;52.552;13.434;2022-12-24T07:12:32;10.23;;;8.53;;
13588;SDS011;6865;52.552;13.434;2022-12-24T07:14:59;12.97;;;8.40;;
13588;SDS011;6865;52.552;13.434;2022-12-24T07:17:25;12.20;;;8.23;;
13588;SDS011;6865;52.552;13.434;2022-12-24T07:19:53;11.27;;;8.20;;
13588;SDS011;6865;52.552;13.434;2022-12-24T07:22:19;13.27;;;8.90;;
13588;SDS011;6865;52.552;13.434;2022-12-24T07:24:46;11.83;;;8.00;;
13588;SDS011;6865;52.552;13.434;2022-12-24T07:27:13;13.17;;;8.30;;
13588;SDS011;6865;52.552;13.434;2022-12-24T07:29:40;13.77;;;8.67;;
13588;SDS011;6865;52.552;13.434;2022-12-24T07:32:06;13.87;;;8.47;;
13588;SDS011;6865;52.552;13.434;2022-12-24T07:34:33;10.43;;;8.23;;
13588;SDS011;6865;52.552;13.434;2022-12-24T07:37:00;11.97;;;8.67;;
13588;SDS011;6865;52.552;13.434;2022-12-24T07:39:27;10.33;;;7.47;;
13588;SDS011;6865;52.552;13.434;2022-12-24T07:41:53;10.57;;;8.43;;
13588;SDS011;6865;52.552;13.434;2022-12-24T07:44:20;13.30;;;8.67;;
13588;SDS011;6865;52.552;13.434;2022-12-24T07:46:46;11.77;;;8.40;;
13588;SDS011;6865;52.552;13.434;2022-12-24T07:49:13;13.50;;;8.97;;
13588;SDS011;6865;52.552;13.434;2022-12-24T07:51:40;13.00;;;8.57;;
13588;SDS011;6865;52.552;13.434;2022-12-24T07:54:06;10.77;;;8.00;;
13588;SDS011;6865;52.552;13.434;2022-12-24T07:56:33;11.93;;;8.70;;
13588;SDS011;6865;52.552;13.434;2022-12-24T07:59:00;11.27;;;8.30;;
13588;SDS011;6865;52.552;13.434;2022-12-24T08:01:26;11.93;;;8.27;;
13588;SDS011;6865;52.552;13.434;2022-12-24T08:03:53;12.07;;;8.63;;
13588;SDS011;6865;52.552;13.434;2022-12-24T08:06:20;11.03;;;8.00;;
13588;SDS011;6865;52.552;13.434;2022-12-24T08:08:47;11.93;;;7.63;;
13588;SDS011;6865;52.552;13.434;2022-12-24T08:11:14;10.67;;;8.20;;
13588;SDS011;6865;52.552;13.434;2022-12-24T08:13:41;11.03;;;7.70;;
13588;SDS011;6865;52.552;13.434;2022-12-24T08:16:08;11.60;;;8.17;;
13588;SDS011;6865;52.552;13.434;2022-12-24T08:18:34;12.27;;;7.83;;
13588;SDS011;6865;52.552;13.434;2022-12-24T08:21:01;10.33;;;7.90;;
13588;SDS011;6865;52.552;13.434;2022-12-24T08:23:28;10.27;;;7.97;;
13588;SDS011;6865;52.552;13.434;2022-12-24T08:25:54;11.23;;;7.83;;
13588;SDS011;6865;52.552;13.434;2022-12-24T08:28:21;9.70;;;7.23;;
13588;SDS011;6865;52.552;13.434;2022-12-24T08:30:48;12.10;;;7.90;;
13588;SDS011;6865;52.552;13.434;2022-12-24T08:33:15;10.63;;;7.63;;
13588;SDS011;6865;52.552;13.434;2022-12-24T08:35:46;11.37;;;8.03;;
13588;SDS011;6865;52.552;13.434;2022-12-24T08:38:17;11.67;;;7.67;;
13588;SDS011;6865;52.552;13.434;2022-12-24T08:40:45;11.27;;;8.13;;
13588;SDS011;6865;52.552;13.434;2022-12-24T08:43:16;11.83;;;7.93;;
13588;SDS011;6865;52.552;13.434;2022-12-24T08:45:43;12.67;;;8.57;;
13588;SDS011;6865;52.552;13.434;2022-12-24T08:48:11;13.13;;;8.80;;
13588;SDS011;6865;52.552;13.434;2022-12-24T08:50:38;13.50;;;8.37;;
13588;SDS011;6865;52.552;13.434;2022-12-24T08:53:06;13.47;;;8.87;;
13588;SDS011;6865;52.552;13.434;2022-12-24T08:55:34;11.93;;;8.80;;
13588;SDS011;6865;52.552;13.434;2022-12-24T08:58:00;12.77;;;8.53;;
13588;SDS011;6865;52.552;13.434;2022-12-24T09:00:32;13.70;;;8.70;;
13588;SDS011;6865;52.552;13.434;2022-12-24T09:02:59;11.30;;;8.33;;
13588;SDS011;6865;52.552;13.434;2022-12-24T09:05:26;13.20;;;8.53;;
13588;SDS011;6865;52.552;13.434;2022-12-24T09:07:54;11.23;;;8.20;;
13588;SDS011;6865;52.552;13.434;2022-12-24T09:10:21;13.70;;;9.67;;
13588;SDS011;6865;52.552;13.434;2022-12-24T09:12:47;13.33;;;9.43;;
13588;SDS011;6865;52.552;13.434;2022-12-24T09:15:14;13.50;;;9.20;;
13588;SDS011;6865;52.552;13.434;2022-12-24T09:17:41;10.77;;;8.00;;
13588;SDS011;6865;52.552;13.434;2022-12-24T09:20:08;11.83;;;8.87;;
13588;SDS011;6865;52.552;13.434;2022-12-24T09:22:36;12.10;;;8.53;;
13588;SDS011;6865;52.552;13.434;2022-12-24T09:25:04;14.17;;;8.60;;
13588;SDS011;6865;52.552;13.434;2022-12-24T09:27:31;13.60;;;8.77;;
13588;SDS011;6865;52.552;13.434;2022-12-24T09:29:58;12.57;;;9.07;;
13588;SDS011;6865;52.552;13.434;2022-12-24T09:32:25;11.77;;;8.07;;
13588;SDS011;6865;52.552;13.434;2022-12-24T09:34:52;13.03;;;9.73;;
13588;SDS011;6865;52.552;13.434;2022-12-24T09:37:19;13.77;;;9.30;;
13588;SDS011;6865;52.552;13.434;2022-12-24T09:39:46;14.80;;;9.00;;
13588;SDS011;6865;52.552;13.434;2022-12-24T09:45:25;13.07;;;9.50;;
13588;SDS011;6865;52.552;13.434;2022-12-24T09:47:57;12.00;;;8.63;;
13588;SDS011;6865;52.552;13.434;2022-12-24T09:53:17;11.97;;;8.33;;
13588;SDS011;6865;52.552;13.434;2022-12-24T09:55:58;10.40;;;7.90;;
13588;SDS011;6865;52.552;13.434;2022-12-24T09:58:35;14.80;;;9.60;;
13588;SDS011;6865;52.552;13.434;2022-12-24T10:01:05;17.20;;;13.70;;
13588;SDS011;6865;52.552;13.434;2022-12-24T10:03:36;14.93;;;10.53;;
13588;SDS011;6865;52.552;13.434;2022-12-24T10:09:17;15.30;;;11.87;;
13588;SDS011;6865;52.552;13.434;2022-12-24T10:12:03;12.90;;;10.00;;
13588;SDS011;6865;52.552;13.434;2022-12-24T10:14:55;11.73;;;9.20;;
13588;SDS011;6865;52.552;13.434;2022-12-24T10:21:48;10.90;;;8.10;;
13588;SDS011;6865;52.552;13.434;2022-12-24T10:23:57;11.27;;;8.40;;
13588;SDS011;6865;52.552;13.434;2022-12-24T10:29:38;12.93;;;8.03;;
13588;SDS011;6865;52.552;13.434;2022-12-24T10:34:35;12.53;;;8.43;;
13588;SDS011;6865;52.552;13.434;2022-12-24T10:37:10;13.23;;;8.43;;
13588;SDS011;6865;52.552;13.434;2022-12-24T10:39:41;11.10;;;8.43;;
13588;SDS011;6865;52.552;13.434;2022-12-24T10:42:08;11.67;;;8.37;;
13588;SDS011;6865;52.552;13.434;2022-12-24T10:44:37;13.27;;;9.03;;
13588;SDS011;6865;52.552;13.434;2022-12-24T10:47:05;13.13;;;9.53;;
13588;SDS011;6865;52.552;13.434;2022-12-24T10:49:44;12.50;;;8.93;;
13588;SDS011;6865;52.552;13.434;2022-12-24T10:52:18;14.67;;;10.37;;
13588;SDS011;6865;52.552;13.434;2022-12-24T10:58:12;16.97;;;11.57;;
13588;SDS011;6865;52.552;13.434;2022-12-24T11:00:41;16.07;;;11.00;;
13588;SDS011;6865;52.552;13.434;2022-12-24T11:03:29;15.43;;;11.23;;
13588;SDS011;6865;52.552;13.434;2022-12-24T11:08:31;15.17;;;11.40;;
13588;SDS011;6865;52.552;13.434;2022-12-24T11:11:04;15.20;;;10.77;;
13588;SDS011;6865;52.552;13.434;2022-12-24T11:13:40;17.23;;;12.50;;
13588;SDS011;6865;52.552;13.434;2022-12-24T11:16:15;20.37;;;12.00;;
13588;SDS011;6865;52.552;13.434;2022-12-24T11:19:01;18.57;;;13.37;;
13588;SDS011;6865;52.552;13.434;2022-12-24T11:21:32;17.37;;;12.13;;
13588;SDS011;6865;52.552;13.434;2022-12-24T11:24:24;18.07;;;12.27;;
13588;SDS011;6865;52.552;13.434;2022-12-24T11:27:22;16.20;;;11.77;;
13588;SDS011;6865;52.552;13.434;2022-12-24T11:30:12;16.27;;;11.40;;
13588;SDS011;6865;52.552;13.434;2022-12-24T11:32:44;15.47;;;10.33;;
13588;SDS011;6865;52.552;13.434;2022-12-24T11:35:14;13.93;;;9.73;;
13588;SDS011;6865;52.552;13.434;2022-12-24T11:38:07;14.30;;;10.30;;
13588;SDS011;6865;52.552;13.434;2022-12-24T11:40:44;15.37;;;10.63;;
13588;SDS011;6865;52.552;13.434;2022-12-24T11:43:22;15.30;;;11.03;;
13588;SDS011;6865;52.552;13.434;2022-12-24T11:45:50;14.77;;;10.37;;
13588;SDS011;6865;52.552;13.434;2022-12-24T11:48:29;15.23;;;10.50;;
13588;SDS011;6865;52.552;13.434;2022-12-24T11:50:58;15.20;;;10.30;;
13588;SDS011;6865;52.552;13.434;2022-12-24T11:53:27;11.63;;;9.07;;
13588;SDS011;6865;52.552;13.434;2022-12-24T11:59:18;12.50;;;9.53;;
13588;SDS011;6865;52.552;13.434;2022-12-24T12:04:50;12.17;;;9.53;;
13588;SDS011;6865;52.552;13.434;2022-12-24T12:07:29;12.30;;;9.37;;
13588;SDS011;6865;52.552;13.434;2022-12-24T12:10:06;13.53;;;9.83;;
13588;SDS011;6865;52.552;13.434;2022-12-24T12:12:58;14.53;;;10.50;;
13588;SDS011;6865;52.552;13.434;2022-12-24T12:15:39;17.63;;;13.93;;
13588;SDS011;6865;52.552;13.434;2022-12-24T12:18:23;13.00;;;9.63;;
13588;SDS011;6865;52.552;13.434;2022-12-24T12:21:19;13.23;;;9.73;;
13588;SDS011;6865;52.552;13.434;2022-12-24T12:23:53;13.17;;;9.87;;
13588;SDS011;6865;52.552;13.434;2022-12-24T12:26:24;12.23;;;9.37;;
13588;SDS011;6865;52.552;13.434;2022-12-24T12:31:25;10.83;;;8.03;;
13588;SDS011;6865;52.552;13.434;2022-12-24T12:34:03;10.67;;;8.47;;
13588;SDS011;6865;52.552;13.434;2022-12-24T12:36:56;12.93;;;9.20;;
13588;SDS011;6865;52.552;13.434;2022-12-24T12:39:29;12.90;;;9.40;;
13588;SDS011;6865;52.552;13.434;2022-12-24T12:42:07;16.30;;;12.70;;
13588;SDS011;6865;52.552;13.434;2022-12-24T12:44:48;18.30;;;11.27;;
13588;SDS011;6865;52.552;13.434;2022-12-24T12:48:21;18.97;;;12.93;;
13588;SDS011;6865;52.552;13.434;2022-12-24T12:50:46;13.53;;;9.53;;
13588;SDS011;6865;52.552;13.434;2022-12-24T12:53:23;12.07;;;8.67;;
13588;SDS011;6865;52.552;13.434;2022-12-24T12:56:27;11.80;;;8.70;;
13588;SDS011;6865;52.552;13.434;2022-12-24T12:58:59;13.20;;;8.13;;
13588;SDS011;6865;52.552;13.434;2022-12-24T13:01:36;13.33;;;8.43;;
13588;SDS011;6865;52.552;13.434;2022-12-24T13:04:38;12.97;;;8.63;;
13588;SDS011;6865;52.552;13.434;2022-12-24T13:10:16;12.07;;;9.00;;
13588;SDS011;6865;52.552;13.434;2022-12-24T13:15:38;12.17;;;7.93;;
13588;SDS011;6865;52.552;13.434;2022-12-24T13:18:36;12.30;;;8.43;;
13588;SDS011;6865;52.552;13.434;2022-12-24T13:21:19;10.30;;;8.10;;
13588;SDS011;6865;52.552;13.434;2022-12-24T13:23:48;11.70;;;8.40;;
13588;SDS011;6865;52.552;13.434;2022-12-24T13:26:15;16.13;;;9.30;;
13588;SDS011;6865;52.552;13.434;2022-12-24T13:28:43;12.20;;;8.10;;
13588;SDS011;6865;52.552;13.434;2022-12-24T13:36:07;16.97;;;9.10;;
13588;SDS011;6865;52.552;13.434;2022-12-24T13:38:52;15.30;;;9.57;;
13588;SDS011;6865;52.552;13.434;2022-12-24T13:49:17;10.47;;;7.37;;
13588;SDS011;6865;52.552;13.434;2022-12-24T13:54:44;14.83;;;7.50;;
13588;SDS011;6865;52.552;13.434;2022-12-24T13:57:30;13.03;;;7.90;;
13588;SDS011;6865;52.552;13.434;2022-12-24T14:05:46;18.80;;;7.43;;
13588;SDS011;6865;52.552;13.434;2022-12-24T14:16:17;21.00;;;6.90;;
13588;SDS011;6865;52.552;13.434;2022-12-24T14:19:13;15.97;;;6.60;;
13588;SDS011;6865;52.552;13.434;2022-12-24T14:24:41;27.30;;;9.90;;
13588;SDS011;6865;52.552;13.434;2022-12-24T14:27:13;18.37;;;8.37;;
13588;SDS011;6865;52.552;13.434;2022-12-24T14:29:49;23.00;;;7.27;;
13588;SDS011;6865;52.552;13.434;2022-12-24T14:32:21;21.50;;;6.23;;
13588;SDS011;6865;52.552;13.434;2022-12-24T14:35:03;17.33;;;5.90;;
13588;SDS011;6865;52.552;13.434;2022-12-24T14:37:45;21.37;;;6.40;;
13588;SDS011;6865;52.552;13.434;2022-12-24T14:40:15;18.20;;;6.00;;
13588;SDS011;6865;52.552;13.434;2022-12-24T14:45:25;20.73;;;6.30;;
13588;SDS011;6865;52.552;13.434;2022-12-24T14:48:12;23.80;;;6.33;;
13588;SDS011;6865;52.552;13.434;2022-12-24T14:51:16;22.33;;;6.13;;
13588;SDS011;6865;52.552;13.434;2022-12-24T14:54:33;20.17;;;6.27;;
13588;SDS011;6865;52.552;13.434;2022-12-24T14:59:45;26.73;;;5.83;;
13588;SDS011;6865;52.552;13.434;2022-12-24T15:05:09;23.40;;;6.50;;
13588;SDS011;6865;52.552;13.434;2022-12-24T15:07:57;23.07;;;6.17;;
13588;SDS011;6865;52.552;13.434;2022-12-24T15:10:28;23.57;;;6.70;;
13588;SDS011;6865;52.552;13.434;2022-12-24T15:13:01;20.30;;;6.37;;
13588;SDS011;6865;52.552;13.434;2022-12-24T15:15:30;23.07;;;6.80;;
13588;SDS011;6865;52.552;13.434;2022-12-24T15:17:59;24.10;;;6.37;;
13588;SDS011;6865;52.552;13.434;2022-12-24T15:20:27;21.20;;;6.30;;
13588;SDS011;6865;52.552;13.434;2022-12-24T15:22:55;21.60;;;5.93;;
13588;SDS011;6865;52.552;13.434;2022-12-24T15:25:31;25.00;;;6.27;;
13588;SDS011;6865;52.552;13.434;2022-12-24T15:27:58;25.47;;;6.73;;
13588;SDS011;6865;52.552;13.434;2022-12-24T15:30:26;23.17;;;6.57;;
13588;SDS011;6865;52.552;13.434;2022-12-24T15:32:55;28.30;;;7.27;;
13588;SDS011;6865;52.552;13.434;2022-12-24T15:35:33;22.80;;;7.37;;
13588;SDS011;6865;52.552;13.434;2022-12-24T15:38:31;27.20;;;8.27;;
13588;SDS011;6865;52.552;13.434;2022-12-24T15:41:01;23.43;;;6.50;;
13588;SDS011;6865;52.552;13.434;2022-12-24T15:43:31;24.93;;;6.50;;
13588;SDS011;6865;52.552;13.434;2022-12-24T15:45:58;25.27;;;7.40;;
13588;SDS011;6865;52.552;13.434;2022-12-24T15:48:26;21.23;;;6.73;;
13588;SDS011;6865;52.552;13.434;2022-12-24T15:50:59;29.70;;;6.93;;
13588;SDS011;6865;52.552;13.434;2022-12-24T15:53:33;29.37;;;6.70;;
13588;SDS011;6865;52.552;13.434;2022-12-24T15:56:06;22.57;;;7.20;;
13588;SDS011;6865;52.552;13.434;2022-12-24T15:58:38;22.53;;;6.63;;
13588;SDS011;6865;52.552;13.434;2022-12-24T16:03:41;26.57;;;7.27;;
13588;SDS011;6865;52.552;13.434;2022-12-24T16:06:21;25.50;;;7.03;;
13588;SDS011;6865;52.552;13.434;2022-12-24T16:08:48;26.93;;;6.90;;
13588;SDS011;6865;52.552;13.434;2022-12-24T16:11:18;26.70;;;7.20;;
13588;SDS011;6865;52.552;13.434;2022-12-24T16:16:17;18.77;;;6.40;;
13588;SDS011;6865;52.552;13.434;2022-12-24T16:18:54;22.50;;;6.90;;
13588;SDS011;6865;52.552;13.434;2022-12-24T16:21:27;21.73;;;7.03;;
13588;SDS011;6865;52.552;13.434;2022-12-24T16:23:54;24.83;;;7.53;;
13588;SDS011;6865;52.552;13.434;2022-12-24T16:26:23;26.03;;;7.43;;
13588;SDS011;6865;52.552;13.434;2022-12-24T16:28:50;26.30;;;7.67;;
13588;SDS011;6865;52.552;13.434;2022-12-24T16:31:17;22.93;;;7.40;;
13588;SDS011;6865;52.552;13.434;2022-12-24T16:33:53;27.30;;;9.53;;
13588;SDS011;6865;52.552;13.434;2022-12-24T16:36:22;30.73;;;7.47;;